Archival Weather

Dewar Lakes

Dewar Lakes, Canada (CWUW)

Report from: Friday, May 26, 2023 8:00 AM EDT
Current time: Monday, July 22, 2024 6:06 AM EDT

Current weather – Weather history – Daily summaries
Weather forecast

Present weatherSM
Temperature-15.0°C (5.0°F)
Wind chill-24.6°C (-12.3°F)
Dew point-16.0°C (3.2°F)
Winds 12 kts (6.2 m/s, 13.8 mph) West-Northwest (300°)
Visibility0 ft. (0 m)
Altimeter29.62 in.Hg (1003 mB)
Relative humidity92 %
Density altitude-3,410 ft. (-1,039 m)
Remarks Fully automated report
Flight conditions Low Instrument Meteorological Conditions
Raw dataCWUW 261200Z AUTO 30012KT ////SM ////// M15/M16 A2962
An error has occurred. This application may no longer respond until reloaded. Reload 🗙